createdAt,value
2019-04-29T00:02:28.073Z,58.68
2019-04-29T00:04:57.672Z,58.66
2019-04-29T00:07:27.364Z,58.52
2019-04-29T00:09:56.991Z,58.61
2019-04-29T00:12:26.955Z,58.74
2019-04-29T00:15:00.951Z,58.88
2019-04-29T00:17:32.178Z,58.83
2019-04-29T00:20:12.200Z,58.80
2019-04-29T00:22:41.794Z,58.88
2019-04-29T00:25:11.572Z,59.14
2019-04-29T00:27:41.198Z,59.09
2019-04-29T00:30:13.012Z,59.14
2019-04-29T00:32:42.620Z,59.04
2019-04-29T00:35:12.398Z,58.98
2019-04-29T00:37:52.321Z,59.27
2019-04-29T00:40:40.044Z,59.57
2019-04-29T00:43:15.437Z,59.70
2019-04-29T00:45:45.211Z,60.13
2019-04-29T00:48:14.814Z,60.35
2019-04-29T00:50:44.429Z,60.51
2019-04-29T00:53:14.030Z,60.70
2019-04-29T00:55:43.634Z,60.90
2019-04-29T00:58:13.216Z,61.20
2019-04-29T01:00:43.196Z,61.23
2019-04-29T01:03:13.558Z,61.34
2019-04-29T01:05:43.335Z,61.46
2019-04-29T01:08:12.923Z,61.45
2019-04-29T01:10:42.513Z,61.43
2019-04-29T01:13:12.115Z,61.50
2019-04-29T01:15:41.708Z,61.53
2019-04-29T01:18:11.475Z,61.65
2019-04-29T01:20:41.096Z,61.48
2019-04-29T01:23:10.717Z,61.42
2019-04-29T01:25:41.953Z,61.43
2019-04-29T01:28:25.302Z,61.49
2019-04-29T01:30:59.857Z,61.68
2019-04-29T01:33:29.462Z,61.79
2019-04-29T01:36:16.949Z,61.93
2019-04-29T01:38:48.839Z,62.09
2019-04-29T01:41:20.275Z,62.08
2019-04-29T01:44:00.552Z,62.08
2019-04-29T01:46:30.877Z,62.06
2019-04-29T01:49:00.536Z,62.03
2019-04-29T01:51:30.143Z,61.94
2019-04-29T01:53:59.801Z,61.92
2019-04-29T01:56:29.421Z,61.86
2019-04-29T01:58:59.014Z,61.92
2019-04-29T02:01:28.620Z,61.92
2019-04-29T02:03:58.216Z,62.06
2019-04-29T02:06:28.107Z,62.12
2019-04-29T02:08:57.773Z,62.06
2019-04-29T02:11:27.357Z,62.06
2019-04-29T02:13:56.960Z,61.96
2019-04-29T02:16:26.563Z,62.00
2019-04-29T02:18:56.174Z,61.91
2019-04-29T02:21:25.774Z,61.88
2019-04-29T02:23:57.008Z,62.19
2019-04-29T02:26:26.618Z,62.38
2019-04-29T02:28:56.212Z,62.64
2019-04-29T02:31:42.111Z,62.78
2019-04-29T02:34:11.771Z,63.00
2019-04-29T02:36:41.384Z,63.16
2019-04-29T02:39:20.126Z,63.27
2019-04-29T02:41:53.828Z,63.38
2019-04-29T02:44:23.411Z,63.28
2019-04-29T02:46:53.026Z,63.29
2019-04-29T02:49:22.632Z,63.31
2019-04-29T02:51:55.080Z,63.06
2019-04-29T02:54:26.325Z,62.85
2019-04-29T02:57:13.239Z,62.44
2019-04-29T02:59:44.471Z,62.29
2019-04-29T03:02:31.414Z,62.36
2019-04-29T03:05:17.340Z,62.21
2019-04-29T03:07:46.991Z,62.05
2019-04-29T03:10:16.985Z,61.90
2019-04-29T03:12:46.603Z,61.82
2019-04-29T03:15:20.781Z,61.92
2019-04-29T03:17:50.379Z,61.81
2019-04-29T03:20:24.462Z,61.70
2019-04-29T03:22:55.818Z,61.79
2019-04-29T03:25:25.420Z,61.94
2019-04-29T03:27:55.091Z,61.83
2019-04-29T03:30:24.692Z,61.92
2019-04-29T03:32:54.302Z,61.94
2019-04-29T03:35:23.888Z,61.88
2019-04-29T03:37:53.496Z,61.96
2019-04-29T03:40:23.114Z,61.96
2019-04-29T03:42:52.706Z,61.94
2019-04-29T03:45:22.313Z,61.86
2019-04-29T03:47:51.920Z,61.95
2019-04-29T03:50:21.523Z,61.89
2019-04-29T03:52:51.117Z,61.80
2019-04-29T03:55:38.324Z,61.62
2019-04-29T03:57:52.054Z,61.60
2019-04-29T04:00:22.002Z,61.63
2019-04-29T04:03:05.033Z,61.68
2019-04-29T04:05:51.281Z,61.79
2019-04-29T04:08:37.469Z,61.67
2019-04-29T04:11:07.076Z,61.69
2019-04-29T04:13:36.675Z,61.59
2019-04-29T04:16:07.921Z,61.68
2019-04-29T04:18:37.514Z,61.73
2019-04-29T04:21:07.186Z,61.49
2019-04-29T04:23:36.785Z,61.39
2019-04-29T04:26:06.399Z,61.03
2019-04-29T04:28:35.985Z,60.96
2019-04-29T04:31:07.007Z,60.78
2019-04-29T04:33:37.069Z,60.75
2019-04-29T04:36:06.675Z,60.71
2019-04-29T04:38:36.257Z,60.63
2019-04-29T04:41:07.503Z,60.65
2019-04-29T04:43:37.110Z,60.53
2019-04-29T04:46:06.716Z,60.54
2019-04-29T04:48:36.313Z,60.21
2019-04-29T04:51:05.917Z,60.13
2019-04-29T04:53:35.515Z,59.94
2019-04-29T04:56:05.189Z,59.83
2019-04-29T04:58:34.785Z,59.59
2019-04-29T05:01:04.406Z,59.50
2019-04-29T05:03:34.007Z,59.11
2019-04-29T05:06:03.614Z,58.94
2019-04-29T05:08:33.218Z,58.78
2019-04-29T05:11:02.846Z,58.76
2019-04-29T05:13:32.431Z,58.51
2019-04-29T05:16:02.047Z,58.95
2019-04-29T05:18:31.662Z,58.50
2019-04-29T05:21:01.267Z,58.54
2019-04-29T05:23:30.886Z,58.16
2019-04-29T05:26:00.488Z,57.29
2019-04-29T05:28:30.091Z,56.54
2019-04-29T05:30:59.725Z,55.80
2019-04-29T05:33:29.332Z,55.07
2019-04-29T05:36:15.273Z,54.63
2019-04-29T05:38:48.949Z,54.75
2019-04-29T05:41:18.931Z,54.88
2019-04-29T05:43:56.061Z,55.16
2019-04-29T05:46:27.304Z,54.88
2019-04-29T05:48:56.907Z,55.33
2019-04-29T05:51:30.611Z,54.91
2019-04-29T05:54:04.296Z,54.67
2019-04-29T05:56:33.915Z,54.80
2019-04-29T05:59:03.524Z,54.20
2019-04-29T06:01:33.132Z,53.87
2019-04-29T06:04:02.741Z,53.81
2019-04-29T06:06:32.370Z,53.96
2019-04-29T06:09:01.942Z,53.18
2019-04-29T06:11:31.549Z,53.00
2019-04-29T06:14:01.140Z,53.19
2019-04-29T06:16:30.760Z,52.90
2019-04-29T06:19:03.086Z,53.55
2019-04-29T06:21:31.750Z,52.46
2019-04-29T06:24:04.335Z,51.91
2019-04-29T06:26:32.679Z,51.15
2019-04-29T06:29:05.569Z,50.75
2019-04-29T06:31:33.599Z,50.55
2019-04-29T06:34:05.205Z,51.22
2019-04-29T06:36:34.615Z,52.10
2019-04-29T06:39:05.707Z,52.77
2019-04-29T06:41:35.328Z,52.87
2019-04-29T06:44:06.593Z,52.74
2019-04-29T06:46:36.282Z,52.60
2019-04-29T06:49:10.585Z,53.36
2019-04-29T06:51:37.251Z,54.30
2019-04-29T06:54:06.862Z,53.98
2019-04-29T06:56:36.491Z,55.02
2019-04-29T06:59:07.623Z,56.12
2019-04-29T07:01:38.629Z,55.09
2019-04-29T07:04:08.337Z,55.96
2019-04-29T07:06:37.955Z,56.24
2019-04-29T07:09:08.311Z,55.72
2019-04-29T07:11:38.578Z,55.34
2019-04-29T07:14:08.184Z,55.54
2019-04-29T07:16:37.809Z,55.14
2019-04-29T07:19:07.410Z,55.63
2019-04-29T07:21:37.091Z,56.72
2019-04-29T07:24:06.715Z,56.89
2019-04-29T07:26:36.317Z,57.29
2019-04-29T07:29:05.942Z,56.69
2019-04-29T07:31:35.566Z,57.20
2019-04-29T07:34:08.139Z,57.16
2019-04-29T07:36:36.526Z,56.75
2019-04-29T07:39:08.054Z,56.65
2019-04-29T07:41:37.656Z,55.23
2019-04-29T07:44:07.262Z,54.97
2019-04-29T07:47:00.253Z,54.86
2019-04-29T07:49:24.818Z,55.21
2019-04-29T07:51:54.441Z,55.33
2019-04-29T07:54:24.033Z,55.85
2019-04-29T07:56:53.632Z,55.43
2019-04-29T07:59:23.245Z,55.90
2019-04-29T08:01:55.787Z,56.09
2019-04-29T08:04:24.364Z,55.61
2019-04-29T08:06:55.305Z,56.06
2019-04-29T08:09:25.263Z,56.33
2019-04-29T08:11:55.717Z,55.82
2019-04-29T08:14:28.409Z,56.40
2019-04-29T08:16:58.016Z,56.13
2019-04-29T08:19:29.318Z,55.99
2019-04-29T08:21:58.971Z,55.77
2019-04-29T08:24:28.601Z,56.79
2019-04-29T08:26:58.192Z,57.02
2019-04-29T08:29:30.718Z,57.65
2019-04-29T08:32:02.206Z,56.91
2019-04-29T08:34:30.502Z,57.06
2019-04-29T08:37:00.119Z,56.38
2019-04-29T08:39:31.204Z,56.44
2019-04-29T08:42:03.728Z,56.09
2019-04-29T08:44:38.099Z,56.00
2019-04-29T08:47:23.625Z,56.03
2019-04-29T08:49:52.731Z,55.99
2019-04-29T08:52:22.329Z,56.28
2019-04-29T08:54:55.417Z,55.44
2019-04-29T08:57:23.271Z,56.21
2019-04-29T08:59:52.879Z,56.22
2019-04-29T09:02:34.348Z,56.42
2019-04-29T09:04:54.119Z,56.99
2019-04-29T09:07:23.826Z,57.34
2019-04-29T09:09:56.154Z,57.29
2019-04-29T09:12:29.035Z,57.26
2019-04-29T09:14:56.112Z,57.67
2019-04-29T09:17:25.717Z,57.54
2019-04-29T09:19:55.304Z,58.23
2019-04-29T09:22:26.545Z,58.58
2019-04-29T09:24:57.806Z,58.11
2019-04-29T09:27:27.436Z,58.30
2019-04-29T09:29:58.881Z,58.37
2019-04-29T09:32:28.667Z,58.31
2019-04-29T09:34:59.464Z,58.86
2019-04-29T09:37:29.249Z,58.68
2019-04-29T09:39:58.855Z,58.80
2019-04-29T09:42:31.076Z,59.13
2019-04-29T09:45:08.441Z,59.00
2019-04-29T09:47:38.055Z,59.05
2019-04-29T09:50:08.654Z,59.13
2019-04-29T09:52:38.277Z,58.77
2019-04-29T09:55:08.128Z,59.20
2019-04-29T09:57:37.734Z,59.83
2019-04-29T10:00:14.810Z,59.98
2019-04-29T10:02:46.129Z,60.09
2019-04-29T10:05:17.869Z,60.92
2019-04-29T10:07:47.540Z,61.06
2019-04-29T10:10:17.338Z,62.12
2019-04-29T10:12:46.998Z,62.42
2019-04-29T10:15:18.493Z,62.73
2019-04-29T10:17:50.789Z,62.42
2019-04-29T10:20:29.427Z,62.80
2019-04-29T10:22:59.051Z,62.95
2019-04-29T10:25:28.728Z,63.19
2019-04-29T10:27:58.341Z,63.34
2019-04-29T10:30:31.141Z,62.82
2019-04-29T10:33:00.929Z,63.20
2019-04-29T10:35:30.535Z,63.43
2019-04-29T10:38:02.911Z,63.28
2019-04-29T10:40:48.244Z,63.38
2019-04-29T10:43:19.520Z,63.20
2019-04-29T10:46:06.060Z,63.51
2019-04-29T10:48:40.247Z,63.61
2019-04-29T10:51:11.800Z,64.02
2019-04-29T10:53:41.413Z,63.96
2019-04-29T10:56:11.268Z,63.94
2019-04-29T10:58:40.863Z,64.16
2019-04-29T11:02:00.365Z,64.24
2019-04-29T11:04:18.594Z,64.21
2019-04-29T11:06:48.348Z,64.73
2019-04-29T11:09:22.458Z,65.08
2019-04-29T11:11:52.086Z,65.56
2019-04-29T11:14:24.663Z,65.07
2019-04-29T11:16:53.170Z,64.58
2019-04-29T11:19:22.778Z,64.62
2019-04-29T11:21:52.550Z,64.98
2019-04-29T11:24:32.334Z,65.09
2019-04-29T11:27:11.531Z,65.44
2019-04-29T11:29:35.814Z,65.42
2019-04-29T11:32:06.765Z,65.63
2019-04-29T11:34:38.018Z,65.39
2019-04-29T11:37:09.263Z,65.49
2019-04-29T11:39:38.859Z,65.57
2019-04-29T11:42:09.974Z,65.33
2019-04-29T11:44:39.738Z,65.80
2019-04-29T11:47:09.348Z,65.90
2019-04-29T11:49:40.579Z,65.45
2019-04-29T11:52:10.467Z,65.28
2019-04-29T11:54:40.197Z,64.97
2019-04-29T11:57:11.500Z,65.11
2019-04-29T11:59:51.602Z,65.24
2019-04-29T12:02:39.409Z,65.69
2019-04-29T12:04:56.159Z,65.51
2019-04-29T12:07:32.096Z,65.69
2019-04-29T12:09:57.130Z,65.92
2019-04-29T12:12:26.796Z,65.48
2019-04-29T12:15:01.548Z,65.65
2019-04-29T12:17:35.374Z,65.37
2019-04-29T12:20:13.146Z,65.69
2019-04-29T12:22:48.448Z,66.05
2019-04-29T12:25:14.347Z,66.03
2019-04-29T12:27:44.096Z,66.18
2019-04-29T12:30:16.941Z,66.22
2019-04-29T12:32:51.016Z,66.25
2019-04-29T12:35:30.169Z,65.89
2019-04-29T12:38:05.827Z,65.97
2019-04-29T12:40:50.163Z,65.80
2019-04-29T12:43:20.667Z,65.77
2019-04-29T12:45:53.682Z,65.72
2019-04-29T12:48:24.964Z,65.44
2019-04-29T12:50:57.452Z,65.91
2019-04-29T12:53:25.933Z,65.90
2019-04-29T12:55:57.229Z,65.92
2019-04-29T12:58:27.074Z,65.89
2019-04-29T13:01:01.231Z,65.83
2019-04-29T13:03:39.720Z,65.51
2019-04-29T13:06:09.581Z,65.57
2019-04-29T13:08:40.467Z,65.67
2019-04-29T13:11:10.231Z,64.77
2019-04-29T13:13:39.838Z,64.39
2019-04-29T13:16:20.196Z,64.48
2019-04-29T13:18:53.884Z,64.48
2019-04-29T13:21:21.189Z,64.73
2019-04-29T13:24:05.011Z,64.55
2019-04-29T13:26:28.164Z,64.76
2019-04-29T13:29:00.379Z,64.76
2019-04-29T13:31:37.493Z,64.69
2019-04-29T13:34:03.371Z,64.75
2019-04-29T13:36:29.176Z,64.66
2019-04-29T13:38:58.797Z,64.60
2019-04-29T13:41:28.760Z,64.44
2019-04-29T13:44:05.319Z,64.29
2019-04-29T13:46:51.246Z,64.26
2019-04-29T13:49:20.060Z,64.33
2019-04-29T13:51:51.411Z,64.49
2019-04-29T13:54:20.999Z,64.24
2019-04-29T13:56:56.166Z,64.14
2019-04-29T13:59:26.484Z,64.43
2019-04-29T14:02:05.623Z,64.72
2019-04-29T14:04:35.952Z,64.43
2019-04-29T14:10:51.126Z,65.16
2019-04-29T14:13:21.146Z,65.63
2019-04-29T14:15:50.524Z,65.63
2019-04-29T14:18:20.132Z,65.76
2019-04-29T14:20:51.781Z,65.69
2019-04-29T14:23:22.676Z,65.93
2019-04-29T14:25:52.321Z,66.04
2019-04-29T14:28:21.911Z,65.77
2019-04-29T14:30:51.527Z,65.95
2019-04-29T14:33:24.208Z,66.23
2019-04-29T14:35:55.786Z,66.06
2019-04-29T14:38:25.382Z,66.00
2019-04-29T14:40:55.018Z,66.16
2019-04-29T14:43:42.222Z,66.07
2019-04-29T14:46:17.288Z,66.05
2019-04-29T14:49:05.800Z,65.29
2019-04-29T14:51:36.904Z,64.91
2019-04-29T14:54:07.549Z,64.84
2019-04-29T14:56:37.265Z,64.96
2019-04-29T14:59:07.691Z,65.04
2019-04-29T15:01:39.105Z,65.01
2019-04-29T15:04:18.300Z,65.04
2019-04-29T15:06:44.585Z,64.97
2019-04-29T15:09:17.763Z,65.09
2019-04-29T15:11:47.474Z,64.83
2019-04-29T15:17:02.442Z,65.12
2019-04-29T15:19:49.256Z,65.08
2019-04-29T15:22:18.391Z,65.11
2019-04-29T15:24:48.011Z,65.01
2019-04-29T15:27:17.963Z,64.71
2019-04-29T15:29:47.581Z,64.90
2019-04-29T15:32:22.032Z,65.12
2019-04-29T15:34:49.778Z,64.97
2019-04-29T15:37:19.588Z,64.97
2019-04-29T15:39:49.202Z,65.20
2019-04-29T15:42:18.831Z,65.54
2019-04-29T15:44:51.623Z,66.01
2019-04-29T15:47:20.421Z,66.23
2019-04-29T15:49:50.013Z,66.29
2019-04-29T15:52:21.129Z,66.27
2019-04-29T15:54:52.424Z,66.31
2019-04-29T15:57:22.648Z,65.82
2019-04-29T15:59:58.634Z,66.01
2019-04-29T16:02:23.753Z,65.95
2019-04-29T16:05:04.645Z,65.66
2019-04-29T16:07:51.513Z,65.66
2019-04-29T16:10:24.233Z,65.63
2019-04-29T16:13:01.404Z,65.70
2019-04-29T16:15:31.011Z,65.75
2019-04-29T16:18:05.154Z,65.41
2019-04-29T16:20:31.973Z,65.33
2019-04-29T16:23:02.214Z,65.17
2019-04-29T16:25:31.889Z,64.93
2019-04-29T16:28:01.528Z,64.51
2019-04-29T16:30:31.996Z,64.18
2019-04-29T16:33:13.335Z,64.20
2019-04-29T16:35:34.817Z,64.36
2019-04-29T16:38:11.169Z,64.81
2019-04-29T16:40:39.251Z,65.02
2019-04-29T16:43:16.633Z,65.30
2019-04-29T16:45:55.444Z,65.25
2019-04-29T16:48:25.126Z,65.29
2019-04-29T16:50:54.808Z,65.02
2019-04-29T16:53:24.436Z,65.12
2019-04-29T16:55:54.092Z,65.00
2019-04-29T16:58:23.690Z,65.11
2019-04-29T17:00:54.874Z,64.90
2019-04-29T17:03:32.388Z,64.98
2019-04-29T17:10:46.966Z,65.38
2019-04-29T17:13:25.812Z,65.80
2019-04-29T17:15:55.433Z,66.23
2019-04-29T17:18:25.050Z,66.67
2019-04-29T17:21:21.891Z,66.91
2019-04-29T17:41:18.958Z,67.84
2019-04-29T18:06:41.622Z,69.41
2019-04-29T18:09:25.950Z,69.37
2019-04-29T18:19:12.036Z,69.40
2019-04-29T18:21:59.240Z,69.49
2019-04-29T19:15:46.989Z,69.81
2019-04-29T19:53:00.633Z,72.16
2019-04-29T20:07:09.025Z,73.58
2019-04-29T20:14:02.215Z,74.00
2019-04-29T20:17:20.866Z,74.10
2019-04-29T20:31:25.903Z,74.82
2019-04-29T20:47:22.124Z,75.44
2019-04-29T20:57:25.846Z,75.72
2019-04-29T21:01:18.444Z,75.80
2019-04-29T21:12:38.566Z,75.97
2019-04-29T21:25:17.524Z,76.19
2019-04-29T21:34:11.155Z,76.43
2019-04-29T21:37:01.729Z,76.50
2019-04-29T21:39:37.796Z,76.47
2019-04-29T21:42:29.765Z,76.62
2019-04-29T21:44:58.584Z,76.72
2019-04-29T21:47:32.061Z,76.66
2019-04-29T21:49:59.502Z,76.71
2019-04-29T21:52:29.108Z,76.64
2019-04-29T21:54:58.724Z,76.58
2019-04-29T21:57:28.327Z,76.56
2019-04-29T21:59:57.960Z,76.32
2019-04-29T22:02:27.536Z,76.19
2019-04-29T22:04:57.152Z,75.91
2019-04-29T22:07:26.757Z,75.39
2019-04-29T22:09:56.897Z,75.21
2019-04-29T22:12:26.499Z,75.17
2019-04-29T22:14:56.538Z,75.11
2019-04-29T22:17:32.801Z,75.07
2019-04-29T22:20:04.251Z,75.18
2019-04-29T22:22:30.709Z,75.19
2019-04-29T22:25:06.014Z,74.94
2019-04-29T22:27:38.747Z,74.09
2019-04-29T22:30:05.823Z,73.45
2019-04-29T22:32:35.518Z,73.12
2019-04-29T22:35:09.228Z,73.15
2019-04-29T22:37:38.839Z,72.89
2019-04-29T22:40:11.645Z,72.94
2019-04-29T22:42:48.888Z,72.96
2019-04-29T22:45:19.058Z,72.80
2019-04-29T22:47:48.654Z,72.17
2019-04-29T22:50:18.269Z,72.09
2019-04-29T22:52:47.875Z,71.23
2019-04-29T22:55:17.491Z,71.20
2019-04-29T22:57:47.087Z,69.95
2019-04-29T23:00:18.669Z,69.46
2019-04-29T23:02:48.257Z,69.68
2019-04-29T23:05:17.870Z,69.50
2019-04-29T23:07:47.481Z,69.23
2019-04-29T23:10:19.923Z,69.14
2019-04-29T23:12:49.325Z,68.88
2019-04-29T23:15:23.590Z,69.06
2019-04-29T23:17:50.903Z,69.00
2019-04-29T23:20:28.857Z,67.19
2019-04-29T23:22:58.814Z,66.72
2019-04-29T23:25:32.859Z,66.52
2019-04-29T23:28:02.455Z,65.29
2019-04-29T23:30:32.076Z,65.21
2019-04-29T23:33:01.669Z,65.27
2019-04-29T23:35:31.279Z,65.29
2019-04-29T23:38:04.182Z,64.42
2019-04-29T23:40:32.233Z,64.42
2019-04-29T23:43:01.852Z,64.18
2019-04-29T23:45:31.464Z,63.82
2019-04-29T23:48:01.060Z,63.23
2019-04-29T23:50:30.709Z,62.81
2019-04-29T23:53:00.306Z,62.07
2019-04-29T23:55:29.930Z,61.51
2019-04-29T23:58:03.862Z,62.09
